Time;durP1;ratioP1;P1;durP2;ratioP2;P2;SDS_P1;SDS_P2;PMS_P1;PMS_P2;Temp;Humidity;BMP_temperature;BMP_pressure;BME280_temperature;BME280_humidity;BME280_pressure;Samples;Min_cycle;Max_cycle;Signal;HPM_P1;HPM_P2
2022/06/26 00:01:06;;;;;;;8.05;6.35;;;;;;;18.36;100.00;101160.34;5012095;28;20596;-46
2022/06/26 00:03:32;;;;;;;7.38;6.78;;;;;;;18.21;100.00;101162.22;5011868;28;20656;-45
2022/06/26 00:05:58;;;;;;;7.38;6.65;;;;;;;18.06;100.00;101164.09;5011772;28;20709;-45
2022/06/26 00:08:25;;;;;;;7.32;6.72;;;;;;;18.26;100.00;101161.94;5011810;28;20557;-47
2022/06/26 00:10:52;;;;;;;7.10;6.50;;;;;;;18.32;100.00;101161.53;5011618;28;20172;-46
2022/06/26 00:13:17;;;;;;;6.28;5.68;;;;;;;18.30;100.00;101158.03;5011583;28;20164;-46
2022/06/26 00:15:43;;;;;;;6.28;5.53;;;;;;;18.38;100.00;101163.84;5011861;28;20558;-47
2022/06/26 00:18:09;;;;;;;6.88;6.18;;;;;;;18.30;100.00;101167.06;5012261;28;20634;-47
2022/06/26 00:20:34;;;;;;;6.63;6.00;;;;;;;18.31;100.00;101165.22;5011728;28;20180;-45
2022/06/26 00:23:00;;;;;;;6.95;6.35;;;;;;;18.14;100.00;101165.44;5011236;28;20216;-45
2022/06/26 00:25:25;;;;;;;7.07;6.47;;;;;;;18.17;100.00;101165.22;5011670;28;20528;-47
2022/06/26 00:27:51;;;;;;;6.18;5.22;;;;;;;18.30;100.00;101161.66;5011395;28;20165;-46
2022/06/26 00:30:16;;;;;;;6.65;5.93;;;;;;;18.24;100.00;101159.31;5009772;28;20189;-44
2022/06/26 00:32:42;;;;;;;6.32;5.82;;;;;;;18.10;100.00;101152.09;5011283;28;20667;-47
2022/06/26 00:35:08;;;;;;;6.95;6.45;;;;;;;18.05;100.00;101151.50;5025733;28;20423;-47
2022/06/26 00:37:34;;;;;;;7.97;7.28;;;;;;;18.05;100.00;101153.34;5011400;28;20247;-48
2022/06/26 00:40:00;;;;;;;7.70;7.10;;;;;;;18.09;100.00;101142.22;5011007;28;20180;-48
2022/06/26 00:42:25;;;;;;;7.47;6.80;;;;;;;18.12;100.00;101144.72;5011661;28;20215;-47
2022/06/26 00:44:54;;;;;;;8.65;7.95;;;;;;;18.08;100.00;101143.19;5025785;28;20286;-47
2022/06/26 00:47:21;;;;;;;8.00;7.30;;;;;;;18.20;100.00;101146.06;5011275;28;20196;-46
2022/06/26 00:49:46;;;;;;;8.73;8.02;;;;;;;18.03;100.00;101148.03;5011086;28;20279;-49
2022/06/26 00:52:13;;;;;;;6.95;6.40;;;;;;;18.10;100.00;101137.66;5010837;28;20192;-47
2022/06/26 00:54:38;;;;;;;6.90;6.20;;;;;;;18.21;100.00;101150.50;5010440;28;20170;-46
2022/06/26 00:57:04;;;;;;;6.90;6.30;;;;;;;18.25;100.00;101154.78;5010537;28;20211;-46
2022/06/26 00:59:31;;;;;;;6.13;5.43;;;;;;;18.32;100.00;101148.84;5011058;28;20196;-50
2022/06/26 01:01:57;;;;;;;6.78;6.18;;;;;;;18.31;100.00;101154.38;5009870;28;20179;-46
2022/06/26 01:04:23;;;;;;;6.43;5.82;;;;;;;18.30;100.00;101160.75;5010914;28;20534;-47
2022/06/26 01:06:49;;;;;;;6.38;5.78;;;;;;;18.25;100.00;101154.78;5009945;28;20191;-49
2022/06/26 01:09:14;;;;;;;7.78;7.10;;;;;;;17.98;100.00;101157.44;5011071;28;20566;-47
2022/06/26 01:11:42;;;;;;;6.85;6.32;;;;;;;17.68;100.00;101145.69;5026354;28;20184;-50
2022/06/26 01:14:09;;;;;;;6.60;6.00;;;;;;;17.62;100.00;101142.50;5010908;28;20169;-47
2022/06/26 01:16:34;;;;;;;7.00;6.40;;;;;;;17.63;100.00;101155.09;5010796;28;20595;-47
2022/06/26 01:19:01;;;;;;;6.18;5.75;;;;;;;17.69;100.00;101152.00;5010913;28;20257;-49
2022/06/26 01:21:26;;;;;;;6.47;5.97;;;;;;;17.69;100.00;101144.72;5009489;28;20168;-46
2022/06/26 01:23:53;;;;;;;7.15;6.55;;;;;;;17.70;100.00;101138.31;5009616;28;20171;-50
2022/06/26 01:26:19;;;;;;;7.43;6.85;;;;;;;17.67;100.00;101145.81;5025566;28;20207;-46
2022/06/26 01:28:45;;;;;;;7.22;6.38;;;;;;;17.62;100.00;101134.34;5010951;28;20239;-45
2022/06/26 01:31:12;;;;;;;6.70;6.10;;;;;;;17.80;100.00;101141.34;5009567;28;20268;-45
2022/06/26 01:33:38;;;;;;;7.03;5.90;;;;;;;17.88;100.00;101130.88;5009214;28;20264;-43
2022/06/26 01:36:06;;;;;;;6.75;6.20;;;;;;;17.94;100.00;101131.50;5025931;28;20204;-43
2022/06/26 01:38:32;;;;;;;6.00;5.60;;;;;;;17.98;100.00;101130.31;5025673;28;20692;-42
2022/06/26 01:40:59;;;;;;;6.40;5.90;;;;;;;17.99;100.00;101137.47;5009257;28;20753;-43
2022/06/26 01:43:30;;;;;;;7.72;6.93;;;;;;;17.73;99.86;101125.56;5009193;28;20169;-43
2022/06/26 01:45:57;;;;;;;7.78;7.07;;;;;;;17.59;100.00;101132.72;5025417;28;20200;-41
2022/06/26 01:48:30;;;;;;;7.50;6.47;;;;;;;17.61;100.00;101128.06;5007705;28;20208;-42
2022/06/26 01:50:58;;;;;;;5.47;5.07;;;;;;;17.78;100.00;101126.16;5025426;28;20242;-42
2022/06/26 01:53:24;;;;;;;6.72;6.13;;;;;;;17.86;100.00;101129.25;5009090;28;20200;-43
2022/06/26 01:55:50;;;;;;;6.93;6.22;;;;;;;17.82;100.00;101122.28;5008781;28;20200;-41
2022/06/26 01:58:24;;;;;;;5.78;5.28;;;;;;;17.80;100.00;101144.06;5025561;28;20557;-41
2022/06/26 02:00:50;;;;;;;6.00;5.50;;;;;;;17.83;100.00;101133.03;5008651;28;20191;-47
2022/06/26 02:03:18;;;;;;;6.68;5.32;;;;;;;17.78;100.00;101135.16;5009153;28;20172;-41
2022/06/26 02:05:45;;;;;;;6.63;6.13;;;;;;;17.64;100.00;101138.72;5008823;28;20203;-41
2022/06/26 02:08:10;;;;;;;6.25;5.70;;;;;;;17.67;100.00;101134.97;5025223;28;20192;-44
2022/06/26 02:13:37;;;;;;;5.57;5.10;;;;;;;17.83;100.00;101132.16;5008603;28;20264;-45
2022/06/26 02:16:19;;;;;;;6.32;5.38;;;;;;;17.83;100.00;101129.47;5008974;28;20188;-40
2022/06/26 02:18:47;;;;;;;6.90;6.30;;;;;;;17.51;100.00;101124.19;5024985;28;20211;-43
2022/06/26 02:21:15;;;;;;;7.38;5.97;;;;;;;17.43;100.00;101118.41;5010023;28;20616;-46
2022/06/26 02:23:42;;;;;;;6.82;6.25;;;;;;;17.55;100.00;101122.16;5009477;28;20563;-46
2022/06/26 02:26:08;;;;;;;6.40;5.82;;;;;;;17.59;100.00;101119.16;5008573;28;20608;-41
2022/06/26 02:28:35;;;;;;;7.10;6.57;;;;;;;17.65;100.00;101121.50;5009771;28;20664;-44
2022/06/26 02:31:01;;;;;;;6.60;6.10;;;;;;;17.71;100.00;101129.25;5009776;28;20491;-45
2022/06/26 02:33:29;;;;;;;6.43;5.93;;;;;;;17.81;100.00;101136.78;5024763;28;20185;-43
2022/06/26 02:35:55;;;;;;;7.05;6.45;;;;;;;17.78;100.00;101128.88;5024629;28;20259;-43
2022/06/26 02:38:23;;;;;;;6.60;6.00;;;;;;;17.87;100.00;101131.88;5009892;28;20184;-44
2022/06/26 02:40:50;;;;;;;6.47;6.03;;;;;;;17.90;100.00;101128.94;5008455;28;20234;-42
2022/06/26 02:43:18;;;;;;;6.90;6.28;;;;;;;17.92;100.00;101137.84;5024874;28;20674;-42
2022/06/26 02:45:44;;;;;;;6.82;6.32;;;;;;;17.81;100.00;101126.81;5008335;28;20188;-43
2022/06/26 02:48:10;;;;;;;7.75;6.40;;;;;;;17.74;100.00;101127.31;5024476;28;20195;-42
2022/06/26 02:50:38;;;;;;;7.80;7.05;;;;;;;17.69;100.00;101131.19;5009731;28;20161;-43
2022/06/26 02:53:05;;;;;;;7.00;6.30;;;;;;;17.64;100.00;101135.13;5008505;28;20177;-44
2022/06/26 02:55:31;;;;;;;7.35;6.70;;;;;;;17.68;100.00;101140.25;5011364;28;20181;-43
2022/06/26 02:57:56;;;;;;;7.05;6.55;;;;;;;17.69;100.00;101123.06;5011748;28;20199;-44
2022/06/26 03:00:23;;;;;;;7.03;6.43;;;;;;;17.77;100.00;101132.53;5028288;28;20235;-44
2022/06/26 03:02:49;;;;;;;6.60;5.93;;;;;;;17.92;100.00;101137.00;5028309;28;20181;-43
2022/06/26 03:05:15;;;;;;;8.20;7.53;;;;;;;17.85;100.00;101141.94;5012502;28;20665;-44
2022/06/26 03:07:41;;;;;;;7.38;6.68;;;;;;;17.91;100.00;101143.41;5011598;28;20733;-45
2022/06/26 03:10:07;;;;;;;6.55;6.05;;;;;;;17.99;100.00;101151.91;5011415;28;20311;-44
2022/06/26 03:12:33;;;;;;;7.05;6.40;;;;;;;17.92;100.00;101142.41;5011702;28;20711;-41
2022/06/26 03:15:02;;;;;;;6.28;5.78;;;;;;;18.02;100.00;101132.72;5011418;28;20177;-48
2022/06/26 03:17:28;;;;;;;7.47;6.88;;;;;;;17.92;100.00;101137.00;5027630;28;20267;-43
2022/06/26 03:19:54;;;;;;;8.10;7.50;;;;;;;17.76;100.00;101141.63;5011696;28;20196;-43
2022/06/26 03:22:19;;;;;;;7.80;7.20;;;;;;;17.84;100.00;101139.31;5027519;28;20215;-45
2022/06/26 03:24:45;;;;;;;8.40;7.70;;;;;;;17.82;100.00;101142.16;5011760;28;20653;-46
2022/06/26 03:27:11;;;;;;;7.22;6.50;;;;;;;17.96;100.00;101149.38;5011395;28;20549;-47
2022/06/26 03:29:36;;;;;;;7.50;6.80;;;;;;;17.94;100.00;101134.19;5027905;28;20204;-42
2022/06/26 03:32:05;;;;;;;7.22;6.63;;;;;;;18.02;100.00;101140.88;5011637;28;20164;-43
2022/06/26 03:34:32;;;;;;;7.15;6.55;;;;;;;18.03;100.00;101139.88;5011250;28;20640;-42
2022/06/26 03:37:00;;;;;;;8.20;7.50;;;;;;;17.99;100.00;101140.19;5011925;28;20211;-42
2022/06/26 03:39:26;;;;;;;7.13;6.60;;;;;;;18.03;100.00;101142.59;5012674;28;20165;-45
2022/06/26 03:42:01;;;;;;;13.05;7.85;;;;;;;17.83;100.00;101133.03;5027931;28;20176;-42
2022/06/26 03:44:30;;;;;;;8.15;7.45;;;;;;;17.91;100.00;101138.84;5012460;28;20195;-48
2022/06/26 03:46:57;;;;;;;8.80;7.90;;;;;;;17.89;100.00;101135.34;5027693;28;20208;-46
2022/06/26 03:49:25;;;;;;;8.18;7.38;;;;;;;18.00;100.00;101140.09;5012507;28;20291;-45
2022/06/26 03:51:51;;;;;;;7.90;7.20;;;;;;;18.02;100.00;101134.59;5027639;28;20177;-44
2022/06/26 03:54:18;;;;;;;7.93;7.38;;;;;;;17.89;100.00;101138.06;5011420;28;20577;-45
2022/06/26 03:56:45;;;;;;;7.93;7.32;;;;;;;17.92;100.00;101147.84;5027417;28;20200;-46
2022/06/26 03:59:10;;;;;;;8.82;8.02;;;;;;;17.90;100.00;101147.06;5007954;28;20187;-43
2022/06/26 04:01:36;;;;;;;9.68;8.88;;;;;;;17.91;100.00;101151.53;4992790;28;20176;-47
2022/06/26 04:04:02;;;;;;;8.65;7.88;;;;;;;18.10;100.00;101151.19;4991460;28;20197;-46
2022/06/26 04:06:29;;;;;;;8.50;7.70;;;;;;;18.14;100.00;101155.47;4990170;28;20193;-43
2022/06/26 04:08:58;;;;;;;9.93;8.93;;;;;;;18.03;100.00;101158.00;4990902;28;20205;-48
2022/06/26 04:11:24;;;;;;;9.25;8.40;;;;;;;17.95;100.00;101150.38;4991243;28;20265;-42
2022/06/26 04:13:57;;;;;;;7.97;7.28;;;;;;;18.10;100.00;101145.78;4991168;28;20174;-48
2022/06/26 04:16:23;;;;;;;8.70;7.90;;;;;;;18.12;100.00;101142.00;4990858;28;20696;-44
2022/06/26 04:18:50;;;;;;;9.73;8.75;;;;;;;18.04;100.00;101152.50;4991179;28;20232;-45
2022/06/26 04:21:16;;;;;;;9.63;8.65;;;;;;;18.04;100.00;101147.06;4990727;28;20165;-43
2022/06/26 04:23:42;;;;;;;10.02;9.13;;;;;;;18.04;100.00;101146.19;4992750;28;20170;-43
2022/06/26 04:26:15;;;;;;;9.68;8.77;;;;;;;18.04;100.00;101160.63;4991963;28;20305;-47
2022/06/26 04:28:43;;;;;;;9.93;9.02;;;;;;;18.11;100.00;101152.97;4991299;28;20216;-47
2022/06/26 04:31:09;;;;;;;8.98;8.07;;;;;;;18.18;100.00;101145.28;4991801;28;20532;-44
2022/06/26 04:33:36;;;;;;;9.85;9.00;;;;;;;18.16;100.00;101145.38;4990867;28;20664;-43
2022/06/26 04:36:07;;;;;;;9.98;9.07;;;;;;;18.11;100.00;101144.81;4990892;28;20247;-43
2022/06/26 04:38:34;;;;;;;9.57;8.27;;;;;;;18.16;100.00;101156.22;4990997;28;20277;-43
2022/06/26 04:41:31;;;;;;;13.57;8.65;;;;;;;18.23;100.00;101140.44;4990408;28;20688;-45
2022/06/26 04:43:46;;;;;;;12.52;9.88;;;;;;;18.26;100.00;101149.25;4991740;28;20200;-46
2022/06/26 04:46:12;;;;;;;9.52;8.25;;;;;;;18.35;100.00;101138.78;4990579;28;20202;-47
2022/06/26 04:48:39;;;;;;;8.90;7.85;;;;;;;18.46;100.00;101147.06;4990420;28;20644;-43
2022/06/26 04:51:07;;;;;;;9.82;7.53;;;;;;;18.55;100.00;101146.44;4990336;28;20676;-46
2022/06/26 04:53:32;;;;;;;13.05;10.38;;;;;;;18.51;100.00;101139.47;4990398;28;20174;-43
2022/06/26 04:55:58;;;;;;;12.00;10.27;;;;;;;18.58;100.00;101150.78;4990231;28;20224;-45
2022/06/26 04:58:24;;;;;;;11.32;9.63;;;;;;;18.62;100.00;101150.50;4990061;28;20173;-47
2022/06/26 05:00:52;;;;;;;13.93;11.63;;;;;;;18.67;100.00;101145.63;4990582;28;20239;-46
2022/06/26 05:03:38;;;;;;;14.32;11.60;;;;;;;18.70;100.00;101159.00;4987729;28;20575;-42
2022/06/26 05:06:29;;;;;;;14.38;11.80;;;;;;;18.78;100.00;101147.63;4990107;28;20201;-44
2022/06/26 05:09:21;;;;;;;11.38;10.32;;;;;;;18.99;100.00;101155.31;4990098;28;20271;-45
2022/06/26 05:11:48;;;;;;;12.95;11.52;;;;;;;19.04;100.00;101148.56;4990399;28;20178;-44
2022/06/26 05:14:15;;;;;;;12.55;10.60;;;;;;;19.19;100.00;101141.22;4989875;28;20188;-44
2022/06/26 05:17:03;;;;;;;12.75;11.50;;;;;;;19.37;100.00;101143.63;4990834;28;20200;-47
2022/06/26 05:19:35;;;;;;;12.63;11.15;;;;;;;19.43;100.00;101152.22;4989823;28;20177;-46
2022/06/26 05:22:05;;;;;;;13.32;11.02;;;;;;;19.54;100.00;101148.75;4990180;28;20239;-44
2022/06/26 05:24:35;;;;;;;12.43;11.13;;;;;;;19.73;100.00;101151.94;4989669;28;20214;-43
2022/06/26 05:27:00;;;;;;;13.85;12.35;;;;;;;19.88;100.00;101146.38;4989719;28;20201;-43
2022/06/26 05:29:29;;;;;;;14.32;12.93;;;;;;;19.93;100.00;101145.03;4989935;28;20673;-45
2022/06/26 05:31:56;;;;;;;14.30;12.57;;;;;;;19.99;100.00;101143.75;4989529;28;20177;-48
2022/06/26 05:34:22;;;;;;;15.15;13.18;;;;;;;20.03;100.00;101147.97;4990135;28;20204;-44
2022/06/26 05:36:48;;;;;;;14.63;12.63;;;;;;;20.04;100.00;101152.44;4989628;28;20622;-44
2022/06/26 05:39:14;;;;;;;12.65;11.65;;;;;;;20.21;100.00;101150.34;4989673;28;20169;-47
2022/06/26 05:41:40;;;;;;;14.48;11.68;;;;;;;20.33;100.00;101139.41;4990419;28;20261;-50
2022/06/26 05:44:05;;;;;;;14.05;12.70;;;;;;;20.47;100.00;101141.09;4989969;28;20164;-46
2022/06/26 05:46:31;;;;;;;13.82;11.20;;;;;;;20.69;100.00;101143.09;4989634;28;20226;-44
2022/06/26 05:49:19;;;;;;;12.93;11.50;;;;;;;;;;4986797;28;20288;-44
2022/06/26 05:52:04;;;;;;;12.57;11.30;;;;;;;21.04;97.65;101139.53;4991179;28;20168;-44
2022/06/26 05:54:48;;;;;;;14.05;12.60;;;;;;;21.06;96.60;101137.56;4990987;28;20541;-47
2022/06/26 05:57:33;;;;;;;12.30;10.85;;;;;;;21.23;96.91;101143.53;4989426;28;20201;-46
2022/06/26 06:00:25;;;;;;;12.10;10.90;;;;;;;21.30;95.77;101142.09;4988321;28;20601;-49
2022/06/26 06:02:54;;;;;;;13.90;11.32;;;;;;;21.35;94.67;101142.59;4989901;28;20549;-44
2022/06/26 06:05:20;;;;;;;11.95;10.85;;;;;;;21.53;94.62;101140.28;4989055;28;20216;-43
2022/06/26 06:07:47;;;;;;;9.75;8.95;;;;;;;21.78;94.20;101139.19;4989008;28;20579;-47
2022/06/26 06:10:12;;;;;;;12.20;9.45;;;;;;;22.00;92.58;101128.28;4989018;28;20213;-45
2022/06/26 06:12:40;;;;;;;9.48;8.68;;;;;;;22.33;90.42;101137.44;4989233;28;20168;-44
2022/06/26 06:15:07;;;;;;;9.10;8.13;;;;;;;22.18;88.36;101134.06;4989383;28;20184;-43
2022/06/26 06:17:40;;;;;;;10.88;8.15;;;;;;;22.42;86.32;101133.94;4988885;28;20304;-43
2022/06/26 06:20:20;;;;;;;8.32;7.57;;;;;;;22.55;86.04;101133.78;4989284;28;20169;-45
2022/06/26 06:22:53;;;;;;;9.75;7.70;;;;;;;22.87;84.99;101134.75;4990491;28;20153;-45
2022/06/26 06:25:23;;;;;;;10.52;7.22;;;;;;;23.06;83.74;101136.84;4989315;28;20188;-48
2022/06/26 06:27:49;;;;;;;8.85;7.95;;;;;;;22.69;84.21;101131.75;5019210;28;20261;-45
2022/06/26 06:30:18;;;;;;;7.90;7.20;;;;;;;22.71;85.14;101136.06;5031479;28;20682;-46
2022/06/26 06:32:45;;;;;;;7.65;7.05;;;;;;;22.49;86.27;101136.16;5032449;28;20221;-46
2022/06/26 06:35:24;;;;;;;8.18;7.13;;;;;;;22.53;86.35;101133.03;5032247;28;20266;-46
2022/06/26 06:37:50;;;;;;;7.75;6.78;;;;;;;22.45;87.22;101127.34;5032422;28;20282;-44
2022/06/26 06:40:15;;;;;;;6.95;6.35;;;;;;;22.58;86.05;101141.69;5032124;28;20198;-44
2022/06/26 06:42:42;;;;;;;8.30;6.55;;;;;;;22.81;85.09;101134.31;5031965;28;20225;-44
2022/06/26 06:45:12;;;;;;;7.32;6.70;;;;;;;22.97;83.59;101135.72;5032283;28;20868;-43
2022/06/26 06:47:53;;;;;;;7.38;6.78;;;;;;;23.22;83.18;101140.84;5032342;28;20186;-43
2022/06/26 06:50:38;;;;;;;9.27;6.88;;;;;;;23.38;82.45;101140.38;5033614;28;20190;-46
2022/06/26 06:53:04;;;;;;;8.85;7.18;;;;;;;23.29;82.02;101143.06;5031972;28;20811;-45
2022/06/26 06:55:30;;;;;;;7.40;6.63;;;;;;;23.30;82.12;101140.16;5032133;28;20188;-43
2022/06/26 06:57:57;;;;;;;6.65;6.05;;;;;;;23.92;82.00;101151.19;5031852;28;20186;-45
2022/06/26 07:00:23;;;;;;;6.90;6.20;;;;;;;24.27;79.50;101143.41;5033297;28;20502;-46
2022/06/26 07:02:50;;;;;;;7.18;5.63;;;;;;;24.47;77.58;101135.22;5031389;28;20176;-44
2022/06/26 07:05:19;;;;;;;7.32;5.65;;;;;;;24.71;76.92;101139.44;5019675;28;20199;-44
2022/06/26 07:07:45;;;;;;;8.48;6.55;;;;;;;24.76;76.17;101139.91;5011874;28;20196;-47
2022/06/26 07:10:11;;;;;;;5.93;5.40;;;;;;;24.65;76.91;101141.75;5011791;28;20630;-43
2022/06/26 07:12:37;;;;;;;7.60;5.80;;;;;;;24.50;76.66;101136.84;5012056;28;20172;-43
2022/06/26 07:15:03;;;;;;;6.07;5.18;;;;;;;25.00;75.08;101137.59;5011742;28;20584;-44
2022/06/26 07:17:29;;;;;;;6.25;5.53;;;;;;;24.94;75.32;101129.94;5011864;28;20595;-43
2022/06/26 07:19:55;;;;;;;5.65;5.20;;;;;;;25.32;72.95;101132.81;5011774;28;20255;-44
2022/06/26 07:22:21;;;;;;;7.53;5.57;;;;;;;25.63;72.95;101130.72;5013362;28;20175;-44
2022/06/26 07:24:50;;;;;;;6.13;5.55;;;;;;;25.88;73.38;101138.31;5011833;28;20184;-43
2022/06/26 07:27:29;;;;;;;5.45;4.93;;;;;;;25.80;71.33;101129.06;4997131;28;20702;-44
2022/06/26 07:29:55;;;;;;;6.38;4.78;;;;;;;26.15;70.81;101135.72;5011673;28;20204;-44
2022/06/26 07:32:21;;;;;;;6.32;5.72;;;;;;;25.71;70.19;101133.56;5011363;28;20662;-46
2022/06/26 07:34:46;;;;;;;5.93;5.20;;;;;;;26.09;71.12;101137.22;5012560;28;20168;-45
2022/06/26 07:37:13;;;;;;;6.97;5.15;;;;;;;26.23;70.68;101136.69;5011807;28;20223;-44
2022/06/26 07:39:38;;;;;;;5.55;5.05;;;;;;;25.90;71.23;101140.91;5010794;28;20615;-47
2022/06/26 07:42:05;;;;;;;5.65;5.00;;;;;;;26.15;70.35;101131.13;5012717;28;20192;-42
2022/06/26 07:44:32;;;;;;;4.88;4.47;;;;;;;26.39;70.62;101135.16;5010429;28;20168;-44
2022/06/26 07:46:58;;;;;;;4.95;4.50;;;;;;;26.77;69.51;101135.94;5010815;28;20211;-46
2022/06/26 07:49:38;;;;;;;6.53;4.20;;;;;;;26.88;68.51;101132.94;4996258;28;20258;-43
2022/06/26 07:52:04;;;;;;;4.63;4.22;;;;;;;26.99;68.28;101126.34;5011210;28;20183;-43
2022/06/26 07:54:30;;;;;;;5.80;4.07;;;;;;;27.06;66.72;101135.69;5012357;28;20172;-44
2022/06/26 07:56:55;;;;;;;4.40;4.00;;;;;;;27.20;66.41;101129.63;5012649;28;20207;-45
2022/06/26 07:59:21;;;;;;;5.75;4.28;;;;;;;27.40;65.38;101134.94;5012480;28;20195;-41
2022/06/26 08:01:46;;;;;;;6.18;3.80;;;;;;;27.33;65.67;101135.59;5012226;28;20164;-43
2022/06/26 08:04:12;;;;;;;4.95;3.90;;;;;;;27.08;64.54;101131.75;5011878;28;20246;-46
2022/06/26 08:06:37;;;;;;;4.28;3.88;;;;;;;26.88;65.17;101141.19;5012267;28;20690;-46
2022/06/26 08:09:03;;;;;;;4.30;3.90;;;;;;;27.04;66.05;101146.81;5011771;28;20275;-45
2022/06/26 08:11:31;;;;;;;5.53;3.97;;;;;;;27.15;63.27;101140.22;5011106;28;20728;-47
2022/06/26 08:13:57;;;;;;;6.68;4.10;;;;;;;27.47;62.71;101150.66;5011313;28;20172;-43
2022/06/26 08:16:22;;;;;;;4.57;4.22;;;;;;;27.94;62.81;101155.81;5010615;28;20212;-43
2022/06/26 08:18:48;;;;;;;5.22;3.70;;;;;;;27.96;60.66;101158.38;5012167;28;20191;-46
2022/06/26 08:23:57;;;;;;;4.38;3.90;;;;;;;28.14;60.04;101148.13;5011940;28;20249;-43
2022/06/26 08:26:23;;;;;;;5.60;4.05;;;;;;;27.92;59.09;101157.84;5011929;28;20270;-44
2022/06/26 08:28:50;;;;;;;4.47;3.70;;;;;;;28.18;60.02;101156.91;5012010;28;20207;-46
2022/06/26 08:31:15;;;;;;;4.88;3.90;;;;;;;28.20;58.47;101163.13;5011781;28;20707;-44
2022/06/26 08:33:41;;;;;;;5.25;4.32;;;;;;;28.27;59.16;101158.69;5010995;28;20263;-44
2022/06/26 08:36:06;;;;;;;5.05;3.65;;;;;;;28.59;59.45;101159.84;5011177;28;20210;-43
2022/06/26 08:38:33;;;;;;;5.07;3.50;;;;;;;28.41;58.35;101159.94;5011317;28;20230;-44
2022/06/26 08:40:59;;;;;;;4.47;4.07;;;;;;;28.30;60.03;101171.28;5011694;28;20664;-43
2022/06/26 08:43:25;;;;;;;3.20;3.00;;;;;;;28.20;56.31;101163.13;5010018;28;20234;-44
2022/06/26 08:45:54;;;;;;;3.53;3.10;;;;;;;28.43;54.55;101176.31;5006542;28;20200;-47
2022/06/26 08:48:25;;;;;;;5.97;3.05;;;;;;;28.57;55.17;101161.91;5011358;28;20255;-46
2022/06/26 08:50:51;;;;;;;3.67;3.20;;;;;;;28.47;54.28;101175.81;5011352;28;20239;-43
2022/06/26 08:53:16;;;;;;;4.90;3.33;;;;;;;28.65;54.81;101172.09;5009774;28;20635;-44
2022/06/26 08:55:43;;;;;;;4.05;2.88;;;;;;;28.72;54.79;101174.00;5010508;28;20187;-44
2022/06/26 08:58:09;;;;;;;6.10;3.08;;;;;;;28.69;53.06;101173.50;5011771;28;20276;-41
2022/06/26 09:00:35;;;;;;;3.60;3.30;;;;;;;28.93;53.81;101173.53;5011226;28;20222;-42
2022/06/26 09:03:00;;;;;;;4.93;3.10;;;;;;;29.16;54.05;101173.75;5011466;28;20179;-43
2022/06/26 09:05:26;;;;;;;3.10;2.90;;;;;;;28.79;52.78;101176.94;5011265;28;20175;-47
2022/06/26 09:07:53;;;;;;;5.65;2.95;;;;;;;29.03;54.19;101175.25;5011099;28;20168;-45
2022/06/26 09:10:19;;;;;;;4.10;3.35;;;;;;;29.16;53.38;101173.75;5011285;28;20269;-45
2022/06/26 09:12:53;;;;;;;3.20;2.88;;;;;;;29.51;53.58;101166.13;5010870;28;20176;-45
2022/06/26 09:15:19;;;;;;;4.38;3.97;;;;;;;29.30;52.46;101168.56;5010494;28;20280;-49
2022/06/26 09:18:04;;;;;;;3.92;3.00;;;;;;;29.51;52.29;101168.03;5010561;28;20242;-48
2022/06/26 09:20:31;;;;;;;5.97;2.72;;;;;;;29.39;52.26;101175.81;5010630;28;20165;-46
2022/06/26 09:22:59;;;;;;;2.72;2.53;;;;;;;29.48;50.76;101169.25;5010381;28;20184;-46
2022/06/26 09:25:36;;;;;;;3.53;2.63;;;;;;;29.38;49.13;101185.97;5010299;28;20543;-48
2022/06/26 09:28:14;;;;;;;3.88;2.35;;;;;;;29.24;48.23;101178.41;5010614;28;20639;-48
2022/06/26 09:30:48;;;;;;;3.20;2.88;;;;;;;28.90;50.61;101189.56;5010547;28;20238;-47
2022/06/26 09:33:14;;;;;;;4.80;2.55;;;;;;;29.29;49.28;101189.78;5010355;28;20509;-45
2022/06/26 09:35:39;;;;;;;3.78;2.85;;;;;;;29.31;48.90;101186.88;5010580;28;20166;-48
2022/06/26 09:38:05;;;;;;;3.05;2.40;;;;;;;29.24;47.85;101186.69;5010190;28;20191;-51
2022/06/26 09:40:30;;;;;;;4.10;2.72;;;;;;;29.43;48.44;101179.97;5010524;28;20160;-47
2022/06/26 09:42:56;;;;;;;4.43;2.83;;;;;;;29.55;48.84;101181.31;5009922;28;20215;-46
2022/06/26 09:45:21;;;;;;;2.65;2.45;;;;;;;29.85;47.65;101178.03;5010358;28;20176;-49
2022/06/26 09:47:48;;;;;;;3.03;2.75;;;;;;;29.63;49.53;101179.56;5008888;28;20188;-46
2022/06/26 09:50:13;;;;;;;19.52;14.93;;;;;;;29.96;46.78;101185.94;5010080;28;20575;-49
2022/06/26 09:52:41;;;;;;;20.33;18.20;;;;;;;30.21;48.13;101181.16;5010465;28;20183;-46
2022/06/26 09:55:07;;;;;;;3.17;2.75;;;;;;;30.02;48.28;101170.53;5009556;28;20532;-46
2022/06/26 09:57:36;;;;;;;18.13;15.85;;;;;;;30.43;48.67;101181.47;5010317;28;20295;-44
2022/06/26 10:00:04;;;;;;;5.68;5.18;;;;;;;30.11;47.31;101184.16;5009947;28;20207;-48
2022/06/26 10:08:10;;;;;;;5.70;2.55;;;;;;;30.07;47.40;101201.28;5010317;28;20160;-44
2022/06/26 10:10:37;;;;;;;5.53;3.10;;;;;;;30.08;46.67;101203.00;5008852;28;20208;-45
2022/06/26 10:13:06;;;;;;;2.55;2.35;;;;;;;29.72;47.24;101196.00;5009562;28;20631;-46
2022/06/26 10:15:53;;;;;;;3.17;2.40;;;;;;;29.90;47.68;101206.84;5009797;28;20187;-46
2022/06/26 10:18:27;;;;;;;3.65;2.50;;;;;;;29.96;47.45;101208.03;5009608;28;20195;-49
2022/06/26 10:20:56;;;;;;;2.50;2.30;;;;;;;29.42;47.36;101208.59;5018176;28;20183;-49
2022/06/26 10:23:36;;;;;;;4.22;3.92;;;;;;;29.65;49.32;101213.41;5029206;28;20167;-47
2022/06/26 10:26:18;;;;;;;2.83;2.35;;;;;;;29.69;48.23;101201.00;5029716;28;20187;-47
2022/06/26 10:28:56;;;;;;;2.42;2.25;;;;;;;29.81;49.08;101207.91;5029461;28;20293;-47
2022/06/26 10:31:22;;;;;;;3.58;2.00;;;;;;;29.86;45.45;101205.47;5028841;28;20268;-46
2022/06/26 10:33:48;;;;;;;5.05;2.03;;;;;;;30.09;46.32;101204.72;5010260;28;20670;-49
2022/06/26 10:36:24;;;;;;;4.95;1.85;;;;;;;29.80;45.93;101206.16;5009470;28;20334;-49
2022/06/26 10:39:03;;;;;;;5.93;1.88;;;;;;;30.04;45.43;101204.38;5009672;28;20173;-49
2022/06/26 10:44:45;;;;;;;1.90;1.75;;;;;;;29.33;45.65;101223.44;5009499;28;20207;-46
2022/06/26 10:47:15;;;;;;;3.10;1.50;;;;;;;29.25;46.55;101224.28;5009729;28;20195;-47
2022/06/26 10:49:51;;;;;;;2.47;1.70;;;;;;;29.46;46.52;101215.50;5009468;28;20409;-45
2022/06/26 10:52:25;;;;;;;1.88;1.73;;;;;;;29.00;46.13;101225.28;5009772;28;20246;-46
2022/06/26 10:54:51;;;;;;;2.53;1.65;;;;;;;29.27;46.69;101218.59;5009076;28;20195;-48
2022/06/26 10:57:23;;;;;;;3.22;2.00;;;;;;;29.36;47.46;101221.19;5009679;28;20208;-45
2022/06/26 10:59:48;;;;;;;5.60;2.22;;;;;;;29.82;47.69;101215.13;5009161;28;20164;-49
2022/06/26 11:02:15;;;;;;;3.45;2.10;;;;;;;30.01;46.97;101221.31;5009838;28;20628;-46
2022/06/26 11:04:50;;;;;;;3.38;2.25;;;;;;;29.57;49.52;101233.63;5007951;28;20176;-44
2022/06/26 11:07:17;;;;;;;3.28;2.55;;;;;;;29.56;48.60;101230.00;5009337;28;20195;-44
2022/06/26 11:09:44;;;;;;;2.85;2.30;;;;;;;28.88;51.85;101238.50;5008318;28;20556;-47
2022/06/26 11:12:09;;;;;;;2.83;2.60;;;;;;;28.81;51.53;101240.22;5008091;28;20263;-46
2022/06/26 11:14:35;;;;;;;3.63;2.50;;;;;;;28.55;52.79;101249.44;5008951;28;20252;-48
2022/06/26 11:17:01;;;;;;;4.93;2.50;;;;;;;28.07;53.40;101243.47;5012572;28;20199;-46
2022/06/26 11:19:31;;;;;;;2.90;2.60;;;;;;;27.96;53.82;101234.63;5013238;28;20608;-46
2022/06/26 11:22:07;;;;;;;3.00;2.70;;;;;;;28.37;53.09;101241.22;5012984;28;20159;-45
2022/06/26 11:24:33;;;;;;;3.03;2.72;;;;;;;28.29;53.44;101241.19;5012598;28;20164;-45
2022/06/26 11:26:59;;;;;;;4.10;2.70;;;;;;;28.24;54.28;101243.56;5012603;28;20199;-45
2022/06/26 11:29:25;;;;;;;3.28;2.95;;;;;;;28.00;55.46;101256.19;5012430;28;20196;-46
2022/06/26 11:31:51;;;;;;;5.28;2.85;;;;;;;27.78;55.35;101253.94;5013318;28;20184;-48
2022/06/26 11:34:17;;;;;;;3.08;2.78;;;;;;;27.84;54.93;101251.41;5012186;28;20203;-47
2022/06/26 11:36:50;;;;;;;3.92;2.90;;;;;;;28.54;54.14;101253.22;5012768;28;20232;-45
2022/06/26 11:39:16;;;;;;;2.95;2.75;;;;;;;28.42;54.08;101251.75;5012641;28;20176;-49